Time;durP1;ratioP1;P1;durP2;ratioP2;P2;SDS_P1;SDS_P2;PMS_P1;PMS_P2;Temp;Humidity;BMP_temperature;BMP_pressure;BME280_temperature;BME280_humidity;BME280_pressure;Samples;Min_cycle;Max_cycle;Signal;HPM_P1;HPM_P2
2022/08/29 00:02:12;;;;;;;9.00;5.72;;;;;;;19.68;74.35;94617.47;5133457;27;20219;-72
2022/08/29 00:04:39;;;;;;;8.98;5.93;;;;;;;19.67;74.38;94619.44;5133333;27;20204;-72
2022/08/29 00:07:06;;;;;;;7.63;5.72;;;;;;;19.59;74.70;94620.56;5133055;27;20549;-72
2022/08/29 00:09:33;;;;;;;10.43;6.07;;;;;;;19.57;74.47;94622.91;5133018;27;20200;-72
2022/08/29 00:12:00;;;;;;;7.20;5.22;;;;;;;19.57;74.41;94628.41;5132503;27;20233;-72
2022/08/29 00:14:26;;;;;;;8.27;5.65;;;;;;;19.46;74.70;94622.81;5132987;27;20221;-72
2022/08/29 00:16:53;;;;;;;9.13;6.28;;;;;;;19.46;75.29;94616.53;5132434;27;20536;-72
2022/08/29 00:19:22;;;;;;;11.50;6.95;;;;;;;19.51;75.35;94618.97;5132103;27;20229;-72
2022/08/29 00:21:49;;;;;;;12.15;6.78;;;;;;;19.54;74.92;94622.91;5132489;27;20603;-72
2022/08/29 00:24:15;;;;;;;9.70;5.80;;;;;;;19.45;74.88;94614.97;5132426;27;20620;-72
2022/08/29 00:26:43;;;;;;;7.35;5.88;;;;;;;19.43;75.37;94623.59;5132179;27;20205;-72
2022/08/29 00:29:09;;;;;;;12.85;6.30;;;;;;;19.49;75.42;94621.31;5133936;27;20193;-72
2022/08/29 00:31:36;;;;;;;10.63;5.82;;;;;;;19.50;74.97;94620.91;5152754;27;20192;-72
2022/08/29 00:34:03;;;;;;;10.35;6.07;;;;;;;19.54;75.17;94618.19;5153236;27;20231;-72
2022/08/29 00:36:31;;;;;;;8.43;6.18;;;;;;;19.51;75.55;94613.47;5152603;27;20204;-72
2022/08/29 00:38:58;;;;;;;9.82;6.20;;;;;;;19.50;75.58;94623.66;5152018;27;20698;-72
2022/08/29 00:41:25;;;;;;;10.30;6.35;;;;;;;19.43;75.70;94618.09;5152023;27;20671;-72
2022/08/29 00:43:52;;;;;;;11.20;6.30;;;;;;;19.33;76.10;94612.53;5152584;27;20200;-72
2022/08/29 00:46:45;;;;;;;11.10;6.68;;;;;;;19.36;75.67;94606.28;5147566;27;20188;-72
2022/08/29 00:49:19;;;;;;;8.43;5.75;;;;;;;19.40;75.38;94609.84;5131658;27;20225;-71
2022/08/29 00:51:47;;;;;;;8.50;5.95;;;;;;;19.45;75.24;94615.75;5132291;27;20593;-71
2022/08/29 00:54:15;;;;;;;10.73;6.03;;;;;;;19.35;75.75;94611.00;5131220;27;20240;-71
2022/08/29 00:56:44;;;;;;;7.40;5.50;;;;;;;19.34;75.81;94614.13;5131433;27;20597;-71
2022/08/29 00:59:15;;;;;;;7.20;5.72;;;;;;;19.29;75.78;94606.22;5131592;27;20498;-71
2022/08/29 01:01:43;;;;;;;11.52;6.47;;;;;;;19.32;76.09;94605.47;5131785;27;20193;-71
2022/08/29 01:04:10;;;;;;;14.50;6.93;;;;;;;19.25;76.06;94600.72;5131690;27;20201;-71
2022/08/29 01:06:39;;;;;;;8.00;6.40;;;;;;;19.17;76.04;94602.63;5131810;27;20246;-71
2022/08/29 01:09:08;;;;;;;11.15;7.13;;;;;;;19.14;75.87;94599.84;5131546;27;20659;-71
2022/08/29 01:14:22;;;;;;;7.93;5.65;;;;;;;19.18;74.73;94601.47;5131434;27;20587;-71
2022/08/29 01:16:51;;;;;;;10.55;6.45;;;;;;;19.20;74.75;94608.53;5131424;27;20613;-71
2022/08/29 01:19:30;;;;;;;11.75;6.13;;;;;;;19.21;75.56;94615.59;5130613;27;20789;-71
2022/08/29 01:22:09;;;;;;;10.32;6.28;;;;;;;19.16;75.78;94598.31;5131530;27;20192;-71
2022/08/29 01:24:40;;;;;;;9.48;6.15;;;;;;;19.14;76.35;94605.34;5131560;27;20185;-71
2022/08/29 01:27:09;;;;;;;13.63;6.82;;;;;;;19.11;76.18;94612.41;5131400;27;20257;-71
2022/08/29 01:29:36;;;;;;;11.77;5.75;;;;;;;19.13;76.24;94603.81;5136766;27;20196;-71
2022/08/29 01:32:03;;;;;;;10.48;5.93;;;;;;;19.08;76.99;94607.69;5152186;27;20204;-71
2022/08/29 01:34:30;;;;;;;8.57;6.40;;;;;;;19.02;77.51;94611.94;5152116;27;20629;-71
2022/08/29 01:36:59;;;;;;;13.07;6.55;;;;;;;19.06;77.36;94601.78;5152422;27;20192;-70
2022/08/29 01:39:28;;;;;;;13.98;6.05;;;;;;;18.95;77.73;94614.66;5151973;27;20742;-71
2022/08/29 01:41:58;;;;;;;6.80;5.60;;;;;;;19.09;77.68;94612.00;5151652;27;20273;-70
2022/08/29 01:44:25;;;;;;;10.10;6.05;;;;;;;18.93;77.88;94611.50;5151915;27;20237;-72
2022/08/29 01:46:55;;;;;;;9.38;6.50;;;;;;;18.91;78.03;94613.81;5141689;27;20293;-71
2022/08/29 01:49:23;;;;;;;10.48;7.35;;;;;;;18.89;78.16;94610.66;5130360;27;20217;-70
2022/08/29 01:51:51;;;;;;;8.02;6.25;;;;;;;18.87;78.18;94618.50;5130807;28;20201;-71
2022/08/29 01:54:19;;;;;;;9.60;6.65;;;;;;;18.90;77.88;94601.25;5131249;27;20201;-71
2022/08/29 01:56:48;;;;;;;13.15;7.50;;;;;;;18.87;78.13;94606.72;5130874;27;20620;-72
2022/08/29 01:59:18;;;;;;;9.80;6.80;;;;;;;18.86;78.03;94605.94;5130020;27;20229;-72
2022/08/29 02:01:50;;;;;;;12.55;6.47;;;;;;;18.74;78.38;94625.44;5130142;27;20208;-71
2022/08/29 02:04:17;;;;;;;11.93;6.53;;;;;;;18.47;78.79;94628.31;5130095;27;20245;-72
2022/08/29 02:06:44;;;;;;;10.93;6.90;;;;;;;18.48;78.25;94624.41;5131008;28;20246;-72
2022/08/29 02:09:11;;;;;;;12.68;6.68;;;;;;;18.54;77.62;94632.31;5131014;28;20201;-72
2022/08/29 02:11:38;;;;;;;10.93;5.97;;;;;;;18.35;77.97;94631.34;5130824;28;20315;-72
2022/08/29 02:14:06;;;;;;;13.38;6.68;;;;;;;18.24;78.44;94630.44;5130907;28;20293;-72
2022/08/29 02:16:35;;;;;;;8.82;6.18;;;;;;;18.27;78.12;94628.91;5130632;28;20193;-71
2022/08/29 02:19:01;;;;;;;9.40;6.28;;;;;;;18.28;78.03;94628.53;5130576;28;20274;-71
2022/08/29 02:21:30;;;;;;;8.68;6.18;;;;;;;18.25;77.66;94623.78;5129816;28;20196;-71
2022/08/29 02:23:59;;;;;;;10.45;6.25;;;;;;;18.20;77.97;94635.09;5130576;28;20204;-72
2022/08/29 02:26:26;;;;;;;8.57;6.15;;;;;;;18.30;77.49;94633.66;5130645;28;20612;-71
2022/08/29 02:28:54;;;;;;;11.98;6.00;;;;;;;18.33;77.87;94633.66;5130834;28;20299;-72
2022/08/29 02:31:22;;;;;;;8.85;5.40;;;;;;;18.35;78.26;94636.81;5150771;27;20612;-72
2022/08/29 02:33:51;;;;;;;12.65;7.07;;;;;;;18.32;78.42;94632.09;5151508;27;20217;-72
2022/08/29 02:36:19;;;;;;;9.23;6.63;;;;;;;18.33;78.96;94622.69;5151503;27;20200;-71
2022/08/29 02:38:46;;;;;;;10.60;6.60;;;;;;;18.31;78.89;94629.75;5151315;27;20321;-72
2022/08/29 02:41:13;;;;;;;9.85;6.78;;;;;;;18.33;79.21;94638.34;5151036;27;20200;-72
2022/08/29 02:43:41;;;;;;;9.43;6.05;;;;;;;18.25;79.46;94637.50;5151542;27;20287;-72
2022/08/29 02:46:07;;;;;;;7.38;5.88;;;;;;;18.20;79.32;94635.09;5147777;27;20189;-72
2022/08/29 02:48:35;;;;;;;13.38;6.28;;;;;;;18.14;79.53;94636.59;5130587;28;20276;-72
2022/08/29 02:51:04;;;;;;;12.60;6.75;;;;;;;18.13;79.76;94635.03;5129854;28;20607;-72
2022/08/29 02:53:31;;;;;;;9.30;6.78;;;;;;;18.14;79.99;94644.84;5132318;27;20625;-72
2022/08/29 02:55:58;;;;;;;10.75;6.60;;;;;;;18.13;80.07;94635.03;5134640;27;20209;-72
2022/08/29 02:58:26;;;;;;;10.80;5.90;;;;;;;18.17;79.93;94635.06;5134225;27;20253;-72
2022/08/29 03:00:53;;;;;;;13.68;7.60;;;;;;;18.07;80.08;94644.75;5133727;27;20225;-72
2022/08/29 03:03:21;;;;;;;13.93;7.43;;;;;;;18.04;80.24;94654.50;5133962;27;20232;-72
2022/08/29 03:05:48;;;;;;;12.13;6.55;;;;;;;18.15;80.06;94654.66;5133823;27;20197;-72
2022/08/29 03:08:17;;;;;;;12.40;7.22;;;;;;;18.18;79.66;94653.88;5133205;27;20201;-72
2022/08/29 03:10:44;;;;;;;11.48;6.75;;;;;;;18.24;79.68;94657.88;5133358;27;20223;-72
2022/08/29 03:13:12;;;;;;;9.88;6.82;;;;;;;18.25;79.72;94653.97;5132995;27;20667;-72
2022/08/29 03:15:39;;;;;;;10.65;7.22;;;;;;;18.20;79.73;94651.53;5133601;27;20205;-72
2022/08/29 03:18:06;;;;;;;11.60;7.18;;;;;;;18.25;79.89;94664.94;5134041;27;20207;-72
2022/08/29 03:20:35;;;;;;;10.52;6.10;;;;;;;18.28;79.41;94666.94;5133909;27;20274;-71
2022/08/29 03:23:03;;;;;;;11.93;7.25;;;;;;;18.29;79.21;94659.50;5132966;27;20250;-72
2022/08/29 03:25:32;;;;;;;9.32;6.20;;;;;;;18.26;79.43;94650.06;5133897;27;20254;-72
2022/08/29 03:27:59;;;;;;;11.50;6.70;;;;;;;18.28;79.46;94669.66;5133481;27;20209;-72
2022/08/29 03:30:27;;;;;;;9.82;7.18;;;;;;;18.33;79.31;94663.84;5146566;27;20284;-72
2022/08/29 03:32:54;;;;;;;11.20;6.85;;;;;;;18.35;79.37;94667.00;5153995;27;20222;-72
2022/08/29 03:35:22;;;;;;;17.50;8.27;;;;;;;18.26;79.43;94671.22;5154299;27;20594;-71
2022/08/29 03:37:49;;;;;;;11.60;6.43;;;;;;;18.25;79.72;94664.13;5154073;27;20192;-72
2022/08/29 03:40:17;;;;;;;10.85;7.18;;;;;;;18.28;79.93;94664.19;5153938;27;20672;-72
2022/08/29 03:42:46;;;;;;;9.77;6.95;;;;;;;18.31;79.55;94666.16;5154422;27;20300;-72
2022/08/29 03:45:16;;;;;;;9.80;6.90;;;;;;;18.26;80.07;94665.72;5154191;27;20270;-72
2022/08/29 03:47:43;;;;;;;10.73;6.45;;;;;;;18.23;80.01;94667.25;5136831;27;20729;-71
2022/08/29 03:50:10;;;;;;;15.75;8.43;;;;;;;18.26;80.30;94666.50;5133374;27;20265;-72
2022/08/29 03:52:38;;;;;;;11.27;7.72;;;;;;;18.29;79.96;94671.25;5132463;27;20212;-72
2022/08/29 03:55:06;;;;;;;14.20;7.50;;;;;;;18.33;80.11;94669.31;5133194;27;20197;-71
2022/08/29 03:57:33;;;;;;;14.25;8.20;;;;;;;18.37;79.99;94672.91;5133288;27;20201;-71
2022/08/29 04:00:09;;;;;;;10.35;6.40;;;;;;;18.39;80.00;94670.56;5133207;27;20236;-72
2022/08/29 04:02:36;;;;;;;9.85;6.45;;;;;;;18.42;80.00;94680.78;5132809;27;20196;-72
2022/08/29 04:05:08;;;;;;;12.25;7.30;;;;;;;18.52;79.80;94673.03;5131522;27;20250;-72
2022/08/29 04:07:44;;;;;;;12.13;7.55;;;;;;;18.59;79.32;94673.13;5133253;27;20213;-72
2022/08/29 04:10:13;;;;;;;11.40;7.03;;;;;;;18.61;79.20;94676.28;5132634;27;20207;-72
2022/08/29 04:12:40;;;;;;;7.40;6.47;;;;;;;18.70;78.91;94687.75;5132693;27;20378;-72
2022/08/29 04:15:10;;;;;;;12.25;6.68;;;;;;;18.78;78.59;94681.16;5132453;27;20250;-72
2022/08/29 04:17:37;;;;;;;8.73;7.30;;;;;;;18.75;78.29;94679.16;5132045;27;20200;-71
2022/08/29 04:20:06;;;;;;;12.77;7.07;;;;;;;18.86;77.86;94671.81;5132784;27;20247;-72
2022/08/29 04:22:35;;;;;;;12.18;7.22;;;;;;;18.96;77.78;94679.38;5132745;27;20250;-72
2022/08/29 04:25:03;;;;;;;14.93;7.65;;;;;;;19.06;77.31;94681.41;5131731;27;20207;-72
2022/08/29 04:27:30;;;;;;;13.30;7.32;;;;;;;19.18;76.83;94688.56;5132383;27;20501;-72
2022/08/29 04:29:57;;;;;;;13.93;7.28;;;;;;;19.23;76.66;94696.47;5140912;27;20188;-72
2022/08/29 04:32:26;;;;;;;9.95;6.82;;;;;;;19.59;75.40;94692.00;5152589;27;20261;-72
2022/08/29 04:34:56;;;;;;;14.43;6.20;;;;;;;19.80;74.73;94685.88;5152076;27;21147;-72
2022/08/29 04:37:23;;;;;;;13.25;6.43;;;;;;;19.78;74.02;94678.00;5152924;27;20761;-72
2022/08/29 04:39:51;;;;;;;11.00;6.57;;;;;;;20.00;72.84;94691.84;5153485;27;20227;-72
2022/08/29 04:42:18;;;;;;;9.95;6.30;;;;;;;20.28;71.94;94689.22;5152984;27;20269;-72
2022/08/29 04:44:45;;;;;;;10.90;6.60;;;;;;;21.23;70.09;94690.59;5152923;27;20207;-72
2022/08/29 04:47:13;;;;;;;10.05;6.60;;;;;;;22.24;66.57;94684.53;5140282;27;20205;-71
2022/08/29 04:49:42;;;;;;;11.85;7.40;;;;;;;23.22;63.36;94676.84;5132182;27;20220;-72
2022/08/29 04:52:09;;;;;;;9.18;6.63;;;;;;;23.69;61.30;94688.31;5132007;27;20285;-71
2022/08/29 04:54:35;;;;;;;10.52;6.95;;;;;;;23.91;60.58;94688.88;5131631;27;20300;-72
2022/08/29 04:57:03;;;;;;;15.52;7.15;;;;;;;23.89;60.57;94697.59;5131455;27;20597;-71
2022/08/29 04:59:30;;;;;;;12.63;7.45;;;;;;;24.60;58.74;94691.22;5131896;27;20197;-70
2022/08/29 05:01:57;;;;;;;14.40;6.50;;;;;;;24.95;58.17;94684.44;5131972;27;20261;-70
2022/08/29 05:04:24;;;;;;;18.52;6.53;;;;;;;25.57;56.92;94687.81;5131753;27;20663;-71
2022/08/29 05:06:52;;;;;;;11.25;5.95;;;;;;;25.61;55.88;94691.31;5131353;27;20197;-71
2022/08/29 05:09:19;;;;;;;8.98;6.63;;;;;;;25.94;54.07;94695.13;5131561;27;20594;-71
2022/08/29 05:11:46;;;;;;;10.35;6.80;;;;;;;26.39;52.78;94695.47;5131651;27;20233;-71
2022/08/29 05:14:13;;;;;;;12.93;7.35;;;;;;;27.56;49.16;94699.25;5131803;27;20217;-71
2022/08/29 05:16:40;;;;;;;12.80;8.70;;;;;;;28.15;47.42;94700.91;5131042;27;20204;-71
2022/08/29 05:19:08;;;;;;;10.98;6.95;;;;;;;28.03;47.46;94693.25;5131348;27;20197;-71
2022/08/29 05:21:38;;;;;;;8.48;6.80;;;;;;;27.66;48.72;94702.97;5131194;27;20224;-71
2022/08/29 05:24:08;;;;;;;17.20;9.50;;;;;;;28.30;47.16;94701.31;5131391;27;20211;-71
2022/08/29 05:26:38;;;;;;;15.57;9.32;;;;;;;28.08;46.65;94701.09;5130602;27;20631;-71
2022/08/29 05:29:07;;;;;;;17.08;10.02;;;;;;;28.15;47.46;94708.50;5132735;27;20246;-71
2022/08/29 05:31:35;;;;;;;13.35;9.50;;;;;;;27.10;49.88;94705.09;5152049;27;20256;-71
2022/08/29 05:34:02;;;;;;;14.80;8.73;;;;;;;26.50;51.29;94704.41;5151663;27;20220;-71
2022/08/29 05:36:29;;;;;;;21.23;10.48;;;;;;;26.50;51.42;94709.94;5151437;27;20536;-71
2022/08/29 05:38:55;;;;;;;19.02;10.18;;;;;;;26.36;52.15;94707.47;5151075;27;20264;-72
2022/08/29 05:41:24;;;;;;;15.32;10.02;;;;;;;26.08;53.04;94715.09;5151101;27;20607;-71
2022/08/29 05:43:53;;;;;;;17.00;9.48;;;;;;;26.03;54.02;94723.13;5151702;27;20295;-71
2022/08/29 05:46:19;;;;;;;19.95;11.10;;;;;;;25.48;54.54;94724.44;5147074;27;20378;-71
2022/08/29 05:48:47;;;;;;;17.98;11.00;;;;;;;24.93;56.66;94720.09;5131456;27;20228;-71
2022/08/29 05:51:18;;;;;;;21.20;11.38;;;;;;;25.10;56.65;94729.38;5131304;27;20199;-71
2022/08/29 05:53:45;;;;;;;16.77;10.40;;;;;;;24.56;58.26;94739.59;5131421;27;20201;-71
2022/08/29 05:56:19;;;;;;;18.17;10.73;;;;;;;24.49;57.92;94729.38;5130521;27;20266;-71
2022/08/29 05:58:48;;;;;;;19.58;11.32;;;;;;;25.00;56.77;94724.78;5130724;27;20189;-71
2022/08/29 06:01:20;;;;;;;18.92;11.63;;;;;;;24.82;57.39;94735.28;5130896;27;20229;-71
2022/08/29 06:03:46;;;;;;;16.20;11.52;;;;;;;24.87;57.57;94735.63;5131233;27;20184;-71
2022/08/29 06:06:13;;;;;;;16.20;10.77;;;;;;;25.84;55.69;94732.97;5131261;27;20197;-72
2022/08/29 06:08:40;;;;;;;17.08;11.23;;;;;;;27.70;50.51;94720.38;5130713;28;20193;-72
2022/08/29 06:11:14;;;;;;;21.35;11.25;;;;;;;29.20;47.00;94715.06;5131073;28;20663;-72
2022/08/29 06:13:41;;;;;;;19.80;10.50;;;;;;;30.77;43.36;94716.16;5131027;28;20281;-72
2022/08/29 06:16:12;;;;;;;16.55;9.60;;;;;;;31.64;41.61;94716.03;5131189;28;20265;-72
2022/08/29 06:18:39;;;;;;;21.42;11.25;;;;;;;31.53;41.81;94712.84;5131050;28;20540;-72
2022/08/29 06:21:07;;;;;;;19.98;11.27;;;;;;;32.15;39.18;94723.91;5131034;28;20224;-72
2022/08/29 06:23:34;;;;;;;20.42;10.55;;;;;;;32.62;38.86;94717.13;5130565;28;20208;-72
2022/08/29 06:26:01;;;;;;;21.38;11.07;;;;;;;33.65;37.22;94715.94;5130702;28;20197;-72
2022/08/29 06:28:28;;;;;;;20.38;11.57;;;;;;;32.86;38.35;94726.47;5131901;27;20675;-71
2022/08/29 06:30:55;;;;;;;24.58;12.65;;;;;;;32.74;37.95;94719.78;5151754;27;20200;-72
2022/08/29 06:33:24;;;;;;;19.27;11.07;;;;;;;32.01;39.21;94718.91;5155283;27;20300;-71
2022/08/29 06:35:52;;;;;;;17.17;10.85;;;;;;;32.64;38.62;94715.41;5155398;27;20658;-71
2022/08/29 06:38:19;;;;;;;18.60;10.90;;;;;;;32.98;37.64;94716.31;5155556;27;20207;-71
2022/08/29 06:40:46;;;;;;;18.65;10.35;;;;;;;33.00;36.85;94720.22;5154881;27;20702;-71
2022/08/29 06:43:13;;;;;;;16.85;12.32;;;;;;;29.94;42.17;94731.41;5155473;27;20292;-73
2022/08/29 06:45:42;;;;;;;17.35;11.63;;;;;;;29.80;43.27;94726.31;5155136;27;20372;-71
2022/08/29 06:48:09;;;;;;;22.70;12.30;;;;;;;29.76;43.21;94722.88;5134108;27;20229;-71
2022/08/29 06:50:38;;;;;;;19.10;12.57;;;;;;;30.88;41.20;94724.19;5134494;27;20274;-71
2022/08/29 06:53:06;;;;;;;19.75;12.05;;;;;;;31.71;40.23;94718.53;5134241;27;20537;-71
2022/08/29 06:55:34;;;;;;;19.52;10.77;;;;;;;30.58;41.88;94731.28;5134795;27;20224;-72
2022/08/29 06:58:01;;;;;;;12.82;9.43;;;;;;;30.78;40.93;94728.91;5133413;27;20699;-70
2022/08/29 07:00:28;;;;;;;13.90;8.70;;;;;;;31.48;40.65;94726.69;5132936;27;20236;-71
2022/08/29 07:02:55;;;;;;;16.35;9.07;;;;;;;31.39;40.93;94731.00;5133771;27;20216;-72
2022/08/29 07:05:23;;;;;;;16.23;9.30;;;;;;;29.90;41.73;94746.75;5134088;27;20197;-72
2022/08/29 07:07:52;;;;;;;20.27;9.60;;;;;;;30.77;40.30;94740.56;5134299;27;20201;-72
2022/08/29 07:10:19;;;;;;;12.48;7.50;;;;;;;30.14;40.64;94745.16;5133882;27;20739;-72
2022/08/29 07:12:46;;;;;;;15.27;8.05;;;;;;;30.19;41.54;94747.38;5133843;27;20282;-71
2022/08/29 07:15:13;;;;;;;11.65;7.85;;;;;;;31.45;39.45;94740.34;5134095;27;20201;-72
2022/08/29 07:17:40;;;;;;;16.63;7.82;;;;;;;32.24;38.10;94743.59;5133788;27;20682;-72
2022/08/29 07:20:08;;;;;;;12.10;7.63;;;;;;;31.15;39.76;94749.56;5134115;27;20754;-72
2022/08/29 07:22:35;;;;;;;14.40;7.95;;;;;;;29.43;41.91;94752.25;5133774;27;20642;-72
2022/08/29 07:25:04;;;;;;;11.95;7.90;;;;;;;28.70;44.13;94763.13;5134142;27;20242;-71
2022/08/29 07:27:31;;;;;;;17.23;8.02;;;;;;;28.72;44.48;94760.66;5133099;27;20193;-72
2022/08/29 07:29:59;;;;;;;15.52;8.15;;;;;;;28.59;44.72;94766.22;5142492;27;20271;-71
2022/08/29 07:32:26;;;;;;;13.02;8.40;;;;;;;27.48;47.15;94761.81;5154455;27;20211;-72
2022/08/29 07:34:52;;;;;;;15.75;7.70;;;;;;;28.14;46.17;94766.22;5154678;27;20220;-72
2022/08/29 07:37:19;;;;;;;19.52;7.60;;;;;;;28.86;43.49;94771.44;5154246;27;20264;-72
2022/08/29 07:39:46;;;;;;;16.88;8.27;;;;;;;30.04;42.08;94757.50;5153925;27;20208;-71
2022/08/29 07:42:15;;;;;;;16.63;8.10;;;;;;;30.76;40.37;94756.56;5153968;27;20228;-71
2022/08/29 07:44:41;;;;;;;16.33;8.18;;;;;;;30.60;39.68;94759.56;5154074;27;20205;-72
2022/08/29 07:47:08;;;;;;;15.07;7.85;;;;;;;30.47;40.25;94761.63;5142258;27;20261;-72
2022/08/29 07:49:35;;;;;;;11.82;8.40;;;;;;;29.73;41.73;94770.47;5133624;27;20245;-72
2022/08/29 07:52:02;;;;;;;15.32;8.40;;;;;;;30.03;42.19;94764.31;5133217;27;20690;-70
2022/08/29 07:54:29;;;;;;;15.98;8.77;;;;;;;30.16;41.44;94755.88;5133489;27;20200;-71
2022/08/29 07:56:56;;;;;;;14.57;7.75;;;;;;;30.62;40.60;94757.06;5133165;27;20200;-72
2022/08/29 07:59:24;;;;;;;16.65;8.02;;;;;;;30.14;41.15;94759.13;5133054;27;20208;-75
2022/08/29 08:01:52;;;;;;;16.52;8.25;;;;;;;28.64;43.94;94754.53;5132923;27;20311;-72
2022/08/29 08:04:18;;;;;;;14.43;8.32;;;;;;;29.48;43.18;94746.91;5133341;27;20201;-72
2022/08/29 08:06:46;;;;;;;12.43;8.40;;;;;;;28.99;43.97;94751.94;5132468;27;20201;-72
2022/08/29 08:09:14;;;;;;;15.23;8.10;;;;;;;28.57;45.66;94753.94;5132504;27;20197;-74
2022/08/29 08:11:41;;;;;;;15.70;8.43;;;;;;;27.91;46.20;94750.47;5131990;27;20197;-72
2022/08/29 08:14:08;;;;;;;16.60;8.50;;;;;;;28.15;45.92;94756.63;5132228;27;20273;-72
2022/08/29 08:16:37;;;;;;;11.60;7.47;;;;;;;28.06;48.00;94747.31;5133047;27;20200;-72
2022/08/29 08:19:04;;;;;;;12.98;7.32;;;;;;;28.94;44.87;94733.00;5132564;27;20619;-72
2022/08/29 08:21:31;;;;;;;12.07;7.05;;;;;;;29.58;44.06;94742.97;5132662;27;20274;-72
2022/08/29 08:23:58;;;;;;;18.35;7.45;;;;;;;29.53;44.31;94743.53;5132445;27;20314;-72
2022/08/29 08:26:25;;;;;;;14.40;7.35;;;;;;;29.65;44.35;94733.63;5133004;27;20215;-71
2022/08/29 08:28:53;;;;;;;14.43;7.47;;;;;;;29.80;44.43;94731.88;5132314;27;20470;-71
2022/08/29 08:31:21;;;;;;;12.63;7.45;;;;;;;30.23;42.75;94724.88;5152722;27;20287;-71
2022/08/29 08:33:50;;;;;;;12.25;7.00;;;;;;;30.23;44.14;94728.47;5152439;27;20706;-71
2022/08/29 08:36:19;;;;;;;12.10;7.68;;;;;;;30.22;42.82;94735.28;5152957;27;20577;-70
2022/08/29 08:38:47;;;;;;;14.95;7.80;;;;;;;29.77;44.27;94737.63;5152910;27;20671;-71
2022/08/29 08:41:24;;;;;;;16.08;7.82;;;;;;;29.28;43.68;94741.50;5153350;27;20224;-71
2022/08/29 08:43:54;;;;;;;13.05;7.97;;;;;;;30.05;43.06;94739.50;5152891;27;20223;-71
2022/08/29 08:46:28;;;;;;;17.35;8.63;;;;;;;29.63;44.00;94728.47;5147929;27;20562;-72
2022/08/29 08:49:00;;;;;;;11.68;7.63;;;;;;;30.04;45.28;94732.34;5132068;27;20221;-71
2022/08/29 08:51:30;;;;;;;13.32;7.57;;;;;;;30.45;43.09;94724.94;5131671;27;20200;-71
2022/08/29 08:53:59;;;;;;;13.02;7.57;;;;;;;30.54;44.46;94725.03;5132148;27;20246;-71
2022/08/29 08:56:34;;;;;;;14.48;8.13;;;;;;;30.50;43.95;94727.91;5131988;27;20623;-72
2022/08/29 08:59:05;;;;;;;11.40;7.55;;;;;;;30.30;44.74;94725.44;5132280;27;20185;-70
2022/08/29 09:01:34;;;;;;;13.02;7.47;;;;;;;29.67;44.97;94722.75;5131689;27;20217;-71
2022/08/29 09:04:30;;;;;;;16.67;7.97;;;;;;;29.76;44.87;94728.44;5131438;27;20315;-71
2022/08/29 09:07:10;;;;;;;12.05;7.50;;;;;;;30.12;44.32;94722.47;5131827;27;20215;-71
2022/08/29 09:09:51;;;;;;;14.30;7.30;;;;;;;30.49;43.63;94714.38;5131828;27;20189;-72
2022/08/29 09:12:31;;;;;;;11.07;7.47;;;;;;;30.50;43.71;94727.13;5131550;27;20334;-72
2022/08/29 09:15:04;;;;;;;11.38;7.43;;;;;;;30.84;43.34;94724.31;5131145;27;20262;-71
2022/08/29 09:17:40;;;;;;;11.18;7.50;;;;;;;29.95;44.54;94726.59;5131483;27;20663;-71
2022/08/29 09:20:14;;;;;;;12.52;7.75;;;;;;;29.96;44.38;94711.41;5131561;27;20188;-71
2022/08/29 09:22:45;;;;;;;13.63;8.07;;;;;;;30.12;44.59;94714.09;5131631;27;20221;-71
2022/08/29 09:25:13;;;;;;;13.43;7.32;;;;;;;29.89;44.96;94711.66;5131693;27;20193;-71
2022/08/29 09:27:40;;;;;;;12.98;7.20;;;;;;;30.41;44.37;94719.47;5131561;27;20261;-71
2022/08/29 09:30:10;;;;;;;13.07;7.55;;;;;;;30.37;43.69;94716.78;5140788;27;20718;-71
2022/08/29 09:32:53;;;;;;;14.75;8.52;;;;;;;29.93;47.05;94715.13;5151711;27;20287;-71
2022/08/29 09:35:25;;;;;;;13.80;7.18;;;;;;;29.98;45.59;94709.75;5151648;27;20185;-71
2022/08/29 09:38:00;;;;;;;11.50;7.90;;;;;;;30.37;45.31;94702.78;5151858;27;20184;-71
2022/08/29 09:40:43;;;;;;;10.77;7.30;;;;;;;29.81;45.31;94704.75;5152109;27;20249;-72
2022/08/29 09:43:18;;;;;;;13.25;7.47;;;;;;;29.52;44.23;94702.13;5151868;27;20212;-70
2022/08/29 09:46:08;;;;;;;10.20;7.43;;;;;;;29.17;46.69;94698.41;5151578;27;20710;-71
2022/08/29 09:48:35;;;;;;;11.55;6.97;;;;;;;28.99;46.27;94708.09;5130875;27;20728;-71
2022/08/29 09:51:13;;;;;;;12.38;6.97;;;;;;;29.48;46.13;94705.03;5131055;27;20205;-71
2022/08/29 09:53:40;;;;;;;13.70;7.90;;;;;;;29.98;45.13;94692.22;5130941;27;20189;-72
2022/08/29 09:56:15;;;;;;;14.50;7.22;;;;;;;29.67;45.48;94684.44;5131321;27;20285;-71
2022/08/29 09:58:43;;;;;;;13.10;7.32;;;;;;;29.73;45.17;94692.25;5130880;27;20276;-71
2022/08/29 10:01:16;;;;;;;13.50;8.10;;;;;;;30.02;45.22;94687.28;5130424;27;20201;-72
2022/08/29 10:03:52;;;;;;;10.57;7.18;;;;;;;29.46;46.28;94693.53;5131275;27;20234;-72
2022/08/29 10:06:23;;;;;;;10.23;7.30;;;;;;;29.16;46.93;94694.06;5130423;27;20655;-71
2022/08/29 10:08:58;;;;;;;15.10;8.00;;;;;;;28.85;48.04;94696.59;5130818;28;20189;-72
2022/08/29 10:11:28;;;;;;;13.63;7.75;;;;;;;28.61;48.98;94699.63;5130748;28;20755;-73
2022/08/29 10:13:58;;;;;;;11.75;7.97;;;;;;;28.52;48.67;94693.94;5130737;28;20710;-72
2022/08/29 10:16:36;;;;;;;13.02;7.68;;;;;;;28.55;48.87;94683.91;5130670;28;20205;-72
2022/08/29 10:19:07;;;;;;;14.13;7.78;;;;;;;28.02;49.49;94688.91;5130962;28;20195;-72
2022/08/29 10:21:45;;;;;;;10.90;7.57;;;;;;;27.54;50.91;94679.38;5130944;28;20261;-71
2022/08/29 10:24:40;;;;;;;12.55;7.85;;;;;;;27.64;50.67;94671.22;5130839;28;20185;-71
2022/08/29 10:27:16;;;;;;;13.43;7.43;;;;;;;27.82;49.36;94671.56;5130723;28;20215;-72
2022/08/29 10:30:01;;;;;;;11.55;7.35;;;;;;;28.04;49.30;94672.53;5137574;27;20181;-72
2022/08/29 10:32:55;;;;;;;14.82;8.07;;;;;;;27.54;49.44;94673.03;5151071;27;20249;-72
2022/08/29 10:35:29;;;;;;;10.93;8.05;;;;;;;27.37;50.25;94672.25;5134379;27;20714;-72
2022/08/29 10:38:03;;;;;;;10.80;7.40;;;;;;;27.31;50.93;94665.66;5150908;27;20212;-72
2022/08/29 10:40:40;;;;;;;12.80;7.75;;;;;;;27.42;51.20;94657.03;5150562;27;20715;-72
2022/08/29 10:43:33;;;;;;;10.38;7.07;;;;;;;27.34;51.55;94663.97;5150817;27;20627;-72
2022/08/29 10:46:11;;;;;;;10.75;7.18;;;;;;;27.17;51.28;94661.22;5149238;27;20188;-72
2022/08/29 10:48:46;;;;;;;14.82;7.22;;;;;;;27.36;51.31;94651.22;5130314;28;20217;-72
2022/08/29 10:51:21;;;;;;;13.10;7.05;;;;;;;27.21;51.39;94672.25;5130514;28;20275;-71
2022/08/29 10:53:54;;;;;;;14.40;7.85;;;;;;;26.92;53.18;94657.44;5130410;28;20348;-72
2022/08/29 10:56:24;;;;;;;13.70;7.50;;;;;;;27.04;53.80;94662.34;5129934;28;20193;-71
2022/08/29 10:59:02;;;;;;;12.18;7.30;;;;;;;27.05;52.59;94666.69;5130202;28;20613;-72
2022/08/29 11:01:33;;;;;;;13.00;7.40;;;;;;;26.78;52.88;94659.31;5130794;28;20197;-72
2022/08/29 11:04:16;;;;;;;17.75;7.88;;;;;;;26.78;51.82;94650.97;5130040;28;20254;-72
2022/08/29 11:06:55;;;;;;;13.45;7.22;;;;;;;27.08;53.65;94651.91;5130243;28;20201;-72
2022/08/29 11:09:29;;;;;;;17.05;7.68;;;;;;;27.33;52.75;94651.31;5129896;28;20230;-72
2022/08/29 11:12:04;;;;;;;11.50;6.97;;;;;;;27.38;51.99;94636.88;5130277;28;20795;-72
2022/08/29 11:14:37;;;;;;;13.40;7.72;;;;;;;27.35;51.74;94637.72;5132025;27;20246;-71
2022/08/29 11:17:07;;;;;;;11.65;7.18;;;;;;;27.40;50.67;94624.09;5134015;27;20193;-72
2022/08/29 11:19:42;;;;;;;15.80;7.25;;;;;;;27.63;50.80;94620.34;5133566;27;20613;-72
2022/08/29 11:22:14;;;;;;;10.50;7.85;;;;;;;27.87;51.43;94604.97;5133663;27;20359;-72
2022/08/29 11:24:45;;;;;;;15.63;7.95;;;;;;;28.25;51.33;94610.69;5134187;27;20189;-72
2022/08/29 11:27:26;;;;;;;14.93;7.82;;;;;;;28.56;50.14;94604.63;5133866;27;20193;-72
2022/08/29 11:29:58;;;;;;;19.83;8.82;;;;;;;29.05;51.02;94598.75;5141610;27;20276;-72
2022/08/29 11:32:33;;;;;;;12.25;8.15;;;;;;;29.22;49.67;94600.19;5154203;27;20193;-72
2022/08/29 11:35:09;;;;;;;18.60;9.15;;;;;;;30.08;46.46;94590.47;5154087;27;20224;-72
2022/08/29 11:38:12;;;;;;;16.92;8.65;;;;;;;30.18;45.38;94589.31;5154518;27;20192;-72
2022/08/29 11:40:57;;;;;;;12.55;7.88;;;;;;;30.23;44.52;94585.91;5153902;27;20634;-73
2022/08/29 11:43:27;;;;;;;11.93;7.45;;;;;;;30.16;44.68;94586.19;5154066;27;20410;-72